Terminal Aerodrome Forecast
Issued by NWS

Home | Current Version | Previous Version | Text Only | Print | Product List | Glossary On
Versions: 1 2 3 4 5 6 7 8 9 10 11 12 13 14 15 16
000
FTUS42 KMLB 231100
TAFSFB
TAF
KSFB 231139Z 2312/2412 VRB02KT P6SM FEW030 SCT250
     FM231400 22003KT P6SM SCT020 SCT200
     FM231800 21006KT P6SM VCTS SCT040CB SCT080 BKN250
     FM240000 VRB03KT P6SM SCT100 BKN250
     FM240300 VRB02KT P6SM SCT250=

USA.gov is the U.S. government's official web portal to all federal, state and local government web resources and services.